sensor_id;sensor_type;location;lat;lon;timestamp;temperature;humidity
33994;DHT22;20673;48.980;8.138;2022-07-23T00:01:36;22.50;99.90
33994;DHT22;20673;48.980;8.138;2022-07-23T00:04:03;22.60;99.90
33994;DHT22;20673;48.980;8.138;2022-07-23T00:06:29;22.50;99.90
33994;DHT22;20673;48.980;8.138;2022-07-23T00:08:55;22.50;99.90
33994;DHT22;20673;48.980;8.138;2022-07-23T00:11:21;22.40;99.90
33994;DHT22;20673;48.980;8.138;2022-07-23T00:13:48;22.30;99.90
33994;DHT22;20673;48.980;8.138;2022-07-23T00:16:14;22.30;99.90
33994;DHT22;20673;48.980;8.138;2022-07-23T00:18:41;22.30;99.90
33994;DHT22;20673;48.980;8.138;2022-07-23T00:21:07;22.30;99.90
33994;DHT22;20673;48.980;8.138;2022-07-23T00:23:33;22.30;99.90
33994;DHT22;20673;48.980;8.138;2022-07-23T00:26:00;22.30;99.90
33994;DHT22;20673;48.980;8.138;2022-07-23T00:28:26;22.20;99.90
33994;DHT22;20673;48.980;8.138;2022-07-23T00:30:52;22.20;99.90
33994;DHT22;20673;48.980;8.138;2022-07-23T00:33:18;22.20;99.90
33994;DHT22;20673;48.980;8.138;2022-07-23T00:35:44;22.10;99.90
33994;DHT22;20673;48.980;8.138;2022-07-23T00:38:11;22.00;99.90
33994;DHT22;20673;48.980;8.138;2022-07-23T00:40:38;21.90;99.90
33994;DHT22;20673;48.980;8.138;2022-07-23T00:43:05;21.80;99.90
33994;DHT22;20673;48.980;8.138;2022-07-23T00:45:32;21.60;99.90
33994;DHT22;20673;48.980;8.138;2022-07-23T00:47:58;21.70;99.90
33994;DHT22;20673;48.980;8.138;2022-07-23T00:50:25;21.70;99.90
33994;DHT22;20673;48.980;8.138;2022-07-23T00:52:52;21.70;99.90
33994;DHT22;20673;48.980;8.138;2022-07-23T00:55:19;21.60;99.90
33994;DHT22;20673;48.980;8.138;2022-07-23T00:57:46;21.60;99.90
33994;DHT22;20673;48.980;8.138;2022-07-23T01:00:14;21.50;99.90
33994;DHT22;20673;48.980;8.138;2022-07-23T01:02:41;21.30;99.90
33994;DHT22;20673;48.980;8.138;2022-07-23T01:05:09;21.30;99.90
33994;DHT22;20673;48.980;8.138;2022-07-23T01:07:35;21.40;99.90
33994;DHT22;20673;48.980;8.138;2022-07-23T01:10:03;21.50;99.90
33994;DHT22;20673;48.980;8.138;2022-07-23T01:12:30;21.40;99.90
33994;DHT22;20673;48.980;8.138;2022-07-23T01:14:58;21.40;99.90
33994;DHT22;20673;48.980;8.138;2022-07-23T01:17:25;21.20;99.90
33994;DHT22;20673;48.980;8.138;2022-07-23T01:19:52;21.10;99.90
33994;DHT22;20673;48.980;8.138;2022-07-23T01:22:19;21.00;99.90
33994;DHT22;20673;48.980;8.138;2022-07-23T01:24:46;20.80;99.90
33994;DHT22;20673;48.980;8.138;2022-07-23T01:27:13;20.70;99.90
33994;DHT22;20673;48.980;8.138;2022-07-23T01:29:39;20.60;99.90
33994;DHT22;20673;48.980;8.138;2022-07-23T01:32:06;20.60;99.90
33994;DHT22;20673;48.980;8.138;2022-07-23T01:34:32;20.60;99.90
33994;DHT22;20673;48.980;8.138;2022-07-23T01:36:58;20.70;99.90
33994;DHT22;20673;48.980;8.138;2022-07-23T01:39:24;20.80;99.90
33994;DHT22;20673;48.980;8.138;2022-07-23T01:41:50;20.80;99.90
33994;DHT22;20673;48.980;8.138;2022-07-23T01:44:16;20.70;99.90
33994;DHT22;20673;48.980;8.138;2022-07-23T01:46:43;20.60;99.90
33994;DHT22;20673;48.980;8.138;2022-07-23T01:49:09;20.50;99.90
33994;DHT22;20673;48.980;8.138;2022-07-23T01:51:35;20.40;99.90
33994;DHT22;20673;48.980;8.138;2022-07-23T01:54:01;20.50;99.90
33994;DHT22;20673;48.980;8.138;2022-07-23T01:56:28;20.50;99.90
33994;DHT22;20673;48.980;8.138;2022-07-23T01:58:54;20.50;99.90
33994;DHT22;20673;48.980;8.138;2022-07-23T02:01:20;20.30;99.90
33994;DHT22;20673;48.980;8.138;2022-07-23T02:03:46;20.30;99.90
33994;DHT22;20673;48.980;8.138;2022-07-23T02:06:13;20.50;99.90
33994;DHT22;20673;48.980;8.138;2022-07-23T02:08:39;20.30;99.90
33994;DHT22;20673;48.980;8.138;2022-07-23T02:11:05;20.20;99.90
33994;DHT22;20673;48.980;8.138;2022-07-23T02:13:31;20.10;99.90
33994;DHT22;20673;48.980;8.138;2022-07-23T02:15:58;20.00;99.90
33994;DHT22;20673;48.980;8.138;2022-07-23T02:18:24;19.80;99.90
33994;DHT22;20673;48.980;8.138;2022-07-23T02:20:50;19.80;99.90
33994;DHT22;20673;48.980;8.138;2022-07-23T02:23:16;19.70;99.90
33994;DHT22;20673;48.980;8.138;2022-07-23T02:25:42;19.70;99.90
33994;DHT22;20673;48.980;8.138;2022-07-23T02:28:08;19.60;99.90
33994;DHT22;20673;48.980;8.138;2022-07-23T02:30:35;19.60;99.90
33994;DHT22;20673;48.980;8.138;2022-07-23T02:33:01;19.50;99.90
33994;DHT22;20673;48.980;8.138;2022-07-23T02:35:28;19.50;99.90
33994;DHT22;20673;48.980;8.138;2022-07-23T02:37:54;19.50;99.90
33994;DHT22;20673;48.980;8.138;2022-07-23T02:40:20;19.50;99.90
33994;DHT22;20673;48.980;8.138;2022-07-23T02:42:47;19.40;99.90
33994;DHT22;20673;48.980;8.138;2022-07-23T02:45:13;19.40;99.90
33994;DHT22;20673;48.980;8.138;2022-07-23T02:47:39;19.40;99.90
33994;DHT22;20673;48.980;8.138;2022-07-23T02:50:06;19.40;99.90
33994;DHT22;20673;48.980;8.138;2022-07-23T02:52:34;19.50;99.90
33994;DHT22;20673;48.980;8.138;2022-07-23T02:55:00;19.50;99.90
33994;DHT22;20673;48.980;8.138;2022-07-23T02:57:26;19.30;99.90
33994;DHT22;20673;48.980;8.138;2022-07-23T02:59:53;19.40;99.90
33994;DHT22;20673;48.980;8.138;2022-07-23T03:02:19;19.50;99.90
33994;DHT22;20673;48.980;8.138;2022-07-23T03:04:45;19.40;99.90
33994;DHT22;20673;48.980;8.138;2022-07-23T03:07:12;19.50;99.90
33994;DHT22;20673;48.980;8.138;2022-07-23T03:09:38;19.40;99.90
33994;DHT22;20673;48.980;8.138;2022-07-23T03:12:04;19.50;99.90
33994;DHT22;20673;48.980;8.138;2022-07-23T03:14:31;19.40;99.90
33994;DHT22;20673;48.980;8.138;2022-07-23T03:16:57;19.40;99.90
33994;DHT22;20673;48.980;8.138;2022-07-23T03:19:25;19.50;99.90
33994;DHT22;20673;48.980;8.138;2022-07-23T03:21:52;19.50;99.90
33994;DHT22;20673;48.980;8.138;2022-07-23T03:24:18;19.60;99.90
33994;DHT22;20673;48.980;8.138;2022-07-23T03:26:44;19.50;99.90
33994;DHT22;20673;48.980;8.138;2022-07-23T03:29:11;19.60;99.90
33994;DHT22;20673;48.980;8.138;2022-07-23T03:31:37;19.60;99.90
33994;DHT22;20673;48.980;8.138;2022-07-23T03:34:03;19.70;99.90
33994;DHT22;20673;48.980;8.138;2022-07-23T03:36:30;19.80;99.90
33994;DHT22;20673;48.980;8.138;2022-07-23T03:38:56;19.80;99.90
33994;DHT22;20673;48.980;8.138;2022-07-23T03:41:22;19.90;99.90
33994;DHT22;20673;48.980;8.138;2022-07-23T03:43:48;19.90;99.90
33994;DHT22;20673;48.980;8.138;2022-07-23T03:46:14;19.90;99.90
33994;DHT22;20673;48.980;8.138;2022-07-23T03:48:40;19.80;99.90
33994;DHT22;20673;48.980;8.138;2022-07-23T03:51:07;19.80;99.90
33994;DHT22;20673;48.980;8.138;2022-07-23T03:53:33;19.80;99.90
33994;DHT22;20673;48.980;8.138;2022-07-23T03:55:59;19.80;99.90
33994;DHT22;20673;48.980;8.138;2022-07-23T03:58:25;19.80;99.90
33994;DHT22;20673;48.980;8.138;2022-07-23T04:00:52;19.80;99.90
33994;DHT22;20673;48.980;8.138;2022-07-23T04:03:18;19.90;99.90
33994;DHT22;20673;48.980;8.138;2022-07-23T04:05:44;19.90;99.90
33994;DHT22;20673;48.980;8.138;2022-07-23T04:08:10;20.00;99.90
33994;DHT22;20673;48.980;8.138;2022-07-23T04:10:36;20.00;99.90
33994;DHT22;20673;48.980;8.138;2022-07-23T04:13:02;20.00;99.90
33994;DHT22;20673;48.980;8.138;2022-07-23T04:15:28;19.80;99.90
33994;DHT22;20673;48.980;8.138;2022-07-23T04:17:54;19.80;99.90
33994;DHT22;20673;48.980;8.138;2022-07-23T04:20:21;19.70;99.90
33994;DHT22;20673;48.980;8.138;2022-07-23T04:22:47;19.60;99.90
33994;DHT22;20673;48.980;8.138;2022-07-23T04:25:13;19.40;99.90
33994;DHT22;20673;48.980;8.138;2022-07-23T04:27:41;19.40;99.90
33994;DHT22;20673;48.980;8.138;2022-07-23T04:30:08;19.40;99.90
33994;DHT22;20673;48.980;8.138;2022-07-23T04:32:35;19.30;99.90
33994;DHT22;20673;48.980;8.138;2022-07-23T04:35:01;19.20;99.90
33994;DHT22;20673;48.980;8.138;2022-07-23T04:37:27;19.20;99.90
33994;DHT22;20673;48.980;8.138;2022-07-23T04:39:53;19.30;99.90
33994;DHT22;20673;48.980;8.138;2022-07-23T04:42:20;19.20;99.90
33994;DHT22;20673;48.980;8.138;2022-07-23T04:44:46;19.20;99.90
33994;DHT22;20673;48.980;8.138;2022-07-23T04:47:12;19.20;99.90
33994;DHT22;20673;48.980;8.138;2022-07-23T04:49:38;19.20;99.90
33994;DHT22;20673;48.980;8.138;2022-07-23T04:52:04;19.20;99.90
33994;DHT22;20673;48.980;8.138;2022-07-23T04:54:30;19.20;99.90
33994;DHT22;20673;48.980;8.138;2022-07-23T04:56:56;19.20;99.90
33994;DHT22;20673;48.980;8.138;2022-07-23T04:59:23;19.20;99.90
33994;DHT22;20673;48.980;8.138;2022-07-23T05:01:49;19.30;99.90
33994;DHT22;20673;48.980;8.138;2022-07-23T05:04:15;19.30;99.90
33994;DHT22;20673;48.980;8.138;2022-07-23T05:06:41;19.40;99.90
33994;DHT22;20673;48.980;8.138;2022-07-23T05:09:07;19.40;99.90
33994;DHT22;20673;48.980;8.138;2022-07-23T05:11:34;19.50;99.90
33994;DHT22;20673;48.980;8.138;2022-07-23T05:14:00;19.60;99.90
33994;DHT22;20673;48.980;8.138;2022-07-23T05:16:26;19.70;99.90
33994;DHT22;20673;48.980;8.138;2022-07-23T05:18:52;19.80;99.90
33994;DHT22;20673;48.980;8.138;2022-07-23T05:21:19;19.90;99.90
33994;DHT22;20673;48.980;8.138;2022-07-23T05:23:45;20.00;99.90
33994;DHT22;20673;48.980;8.138;2022-07-23T05:26:12;20.00;99.90
33994;DHT22;20673;48.980;8.138;2022-07-23T05:28:38;20.00;99.90
33994;DHT22;20673;48.980;8.138;2022-07-23T05:31:04;20.00;99.90
33994;DHT22;20673;48.980;8.138;2022-07-23T05:33:30;20.00;99.90
33994;DHT22;20673;48.980;8.138;2022-07-23T05:36:03;19.90;99.90
33994;DHT22;20673;48.980;8.138;2022-07-23T05:38:31;19.80;99.90
33994;DHT22;20673;48.980;8.138;2022-07-23T05:40:58;19.70;99.90
33994;DHT22;20673;48.980;8.138;2022-07-23T05:43:24;19.80;99.90
33994;DHT22;20673;48.980;8.138;2022-07-23T05:45:51;19.90;99.90
33994;DHT22;20673;48.980;8.138;2022-07-23T05:48:17;19.90;99.90
33994;DHT22;20673;48.980;8.138;2022-07-23T05:50:44;19.90;99.90
33994;DHT22;20673;48.980;8.138;2022-07-23T05:53:10;19.90;99.90
33994;DHT22;20673;48.980;8.138;2022-07-23T05:55:36;19.90;99.90
33994;DHT22;20673;48.980;8.138;2022-07-23T05:58:02;19.90;99.90
33994;DHT22;20673;48.980;8.138;2022-07-23T06:00:29;19.90;99.90
33994;DHT22;20673;48.980;8.138;2022-07-23T06:02:55;20.00;99.90
33994;DHT22;20673;48.980;8.138;2022-07-23T06:05:22;20.10;99.90
33994;DHT22;20673;48.980;8.138;2022-07-23T06:07:48;20.30;99.90
33994;DHT22;20673;48.980;8.138;2022-07-23T06:10:16;20.20;99.90
33994;DHT22;20673;48.980;8.138;2022-07-23T06:12:42;20.20;99.90
33994;DHT22;20673;48.980;8.138;2022-07-23T06:15:09;20.30;99.90
33994;DHT22;20673;48.980;8.138;2022-07-23T06:17:36;20.40;99.90
33994;DHT22;20673;48.980;8.138;2022-07-23T06:20:05;20.60;99.90
33994;DHT22;20673;48.980;8.138;2022-07-23T06:22:32;20.80;99.90
33994;DHT22;20673;48.980;8.138;2022-07-23T06:24:59;21.00;99.90
33994;DHT22;20673;48.980;8.138;2022-07-23T06:27:25;21.20;99.90
33994;DHT22;20673;48.980;8.138;2022-07-23T06:29:51;21.40;99.90
33994;DHT22;20673;48.980;8.138;2022-07-23T06:32:17;21.60;99.90
33994;DHT22;20673;48.980;8.138;2022-07-23T06:34:43;21.80;99.90
33994;DHT22;20673;48.980;8.138;2022-07-23T06:37:10;21.90;99.90
33994;DHT22;20673;48.980;8.138;2022-07-23T06:39:36;22.00;99.90
33994;DHT22;20673;48.980;8.138;2022-07-23T06:42:03;22.10;99.90
33994;DHT22;20673;48.980;8.138;2022-07-23T06:44:29;22.10;99.90
33994;DHT22;20673;48.980;8.138;2022-07-23T06:46:55;22.10;99.90
33994;DHT22;20673;48.980;8.138;2022-07-23T06:49:21;22.00;99.90
33994;DHT22;20673;48.980;8.138;2022-07-23T06:51:48;22.00;99.90
33994;DHT22;20673;48.980;8.138;2022-07-23T06:54:14;21.90;99.90
33994;DHT22;20673;48.980;8.138;2022-07-23T06:56:40;22.00;99.90
33994;DHT22;20673;48.980;8.138;2022-07-23T06:59:08;22.10;99.90
33994;DHT22;20673;48.980;8.138;2022-07-23T07:01:34;22.10;99.90
33994;DHT22;20673;48.980;8.138;2022-07-23T07:04:00;22.10;99.90
33994;DHT22;20673;48.980;8.138;2022-07-23T07:06:27;22.20;99.90
33994;DHT22;20673;48.980;8.138;2022-07-23T07:08:53;22.30;99.90
33994;DHT22;20673;48.980;8.138;2022-07-23T07:11:20;22.10;99.90
33994;DHT22;20673;48.980;8.138;2022-07-23T07:13:46;22.00;99.90
33994;DHT22;20673;48.980;8.138;2022-07-23T07:16:12;22.00;99.90
33994;DHT22;20673;48.980;8.138;2022-07-23T07:18:39;22.10;99.90
33994;DHT22;20673;48.980;8.138;2022-07-23T07:21:05;22.20;99.90
33994;DHT22;20673;48.980;8.138;2022-07-23T07:23:31;22.50;99.90
33994;DHT22;20673;48.980;8.138;2022-07-23T07:25:57;22.70;99.90
33994;DHT22;20673;48.980;8.138;2022-07-23T07:28:24;22.90;99.90
33994;DHT22;20673;48.980;8.138;2022-07-23T07:30:50;23.30;99.90
33994;DHT22;20673;48.980;8.138;2022-07-23T07:33:16;23.60;99.90
33994;DHT22;20673;48.980;8.138;2022-07-23T07:35:42;23.70;99.90
33994;DHT22;20673;48.980;8.138;2022-07-23T07:38:09;23.80;99.90
33994;DHT22;20673;48.980;8.138;2022-07-23T07:40:35;23.50;99.90
33994;DHT22;20673;48.980;8.138;2022-07-23T07:43:01;23.30;99.90
33994;DHT22;20673;48.980;8.138;2022-07-23T07:45:29;23.20;99.90
33994;DHT22;20673;48.980;8.138;2022-07-23T07:47:55;23.30;99.90
33994;DHT22;20673;48.980;8.138;2022-07-23T07:50:21;23.70;99.90
33994;DHT22;20673;48.980;8.138;2022-07-23T07:52:48;23.60;99.90
33994;DHT22;20673;48.980;8.138;2022-07-23T07:55:15;23.90;99.90
33994;DHT22;20673;48.980;8.138;2022-07-23T07:57:41;24.00;99.90
33994;DHT22;20673;48.980;8.138;2022-07-23T08:00:09;24.20;99.90
33994;DHT22;20673;48.980;8.138;2022-07-23T08:02:48;24.30;99.90
33994;DHT22;20673;48.980;8.138;2022-07-23T08:05:22;24.40;99.90
33994;DHT22;20673;48.980;8.138;2022-07-23T08:07:50;24.70;99.90
33994;DHT22;20673;48.980;8.138;2022-07-23T08:10:17;24.80;99.90
33994;DHT22;20673;48.980;8.138;2022-07-23T08:12:46;24.90;99.90
33994;DHT22;20673;48.980;8.138;2022-07-23T08:15:16;25.00;99.90
33994;DHT22;20673;48.980;8.138;2022-07-23T08:17:44;25.00;99.90
33994;DHT22;20673;48.980;8.138;2022-07-23T08:20:13;25.10;99.90
33994;DHT22;20673;48.980;8.138;2022-07-23T08:22:49;25.50;99.90
33994;DHT22;20673;48.980;8.138;2022-07-23T08:25:20;25.70;99.90
33994;DHT22;20673;48.980;8.138;2022-07-23T08:27:50;25.60;99.90
33994;DHT22;20673;48.980;8.138;2022-07-23T08:30:17;25.80;99.90
33994;DHT22;20673;48.980;8.138;2022-07-23T08:32:57;26.00;99.90
33994;DHT22;20673;48.980;8.138;2022-07-23T08:35:39;26.10;99.90
33994;DHT22;20673;48.980;8.138;2022-07-23T08:38:08;26.30;99.90
33994;DHT22;20673;48.980;8.138;2022-07-23T08:40:38;26.40;99.90
33994;DHT22;20673;48.980;8.138;2022-07-23T08:43:08;26.40;99.90
33994;DHT22;20673;48.980;8.138;2022-07-23T08:45:38;26.50;99.90
33994;DHT22;20673;48.980;8.138;2022-07-23T08:48:24;26.20;99.90
33994;DHT22;20673;48.980;8.138;2022-07-23T08:50:56;25.90;99.90
33994;DHT22;20673;48.980;8.138;2022-07-23T08:53:26;26.20;99.90
33994;DHT22;20673;48.980;8.138;2022-07-23T08:55:56;26.60;99.90
33994;DHT22;20673;48.980;8.138;2022-07-23T08:58:24;27.00;99.90
33994;DHT22;20673;48.980;8.138;2022-07-23T09:00:51;27.30;99.90
33994;DHT22;20673;48.980;8.138;2022-07-23T09:03:23;27.70;99.90
33994;DHT22;20673;48.980;8.138;2022-07-23T09:05:51;27.90;99.90
33994;DHT22;20673;48.980;8.138;2022-07-23T09:08:25;28.00;99.90
33994;DHT22;20673;48.980;8.138;2022-07-23T09:10:57;28.00;99.90
33994;DHT22;20673;48.980;8.138;2022-07-23T09:13:51;27.90;99.90
33994;DHT22;20673;48.980;8.138;2022-07-23T09:16:24;27.70;99.90
33994;DHT22;20673;48.980;8.138;2022-07-23T09:19:03;27.70;99.90
33994;DHT22;20673;48.980;8.138;2022-07-23T09:21:33;28.20;99.90
33994;DHT22;20673;48.980;8.138;2022-07-23T09:24:03;28.60;99.90
33994;DHT22;20673;48.980;8.138;2022-07-23T09:29:27;29.00;99.90
33994;DHT22;20673;48.980;8.138;2022-07-23T09:32:00;28.90;99.90
33994;DHT22;20673;48.980;8.138;2022-07-23T09:34:32;28.80;99.90
33994;DHT22;20673;48.980;8.138;2022-07-23T09:37:11;28.70;99.90
33994;DHT22;20673;48.980;8.138;2022-07-23T09:39:39;28.60;99.90
33994;DHT22;20673;48.980;8.138;2022-07-23T09:42:19;28.70;99.90
33994;DHT22;20673;48.980;8.138;2022-07-23T09:44:48;29.10;99.90
33994;DHT22;20673;48.980;8.138;2022-07-23T09:47:17;29.30;99.90
33994;DHT22;20673;48.980;8.138;2022-07-23T09:50:05;29.30;99.90
33994;DHT22;20673;48.980;8.138;2022-07-23T09:52:46;28.90;99.90
33994;DHT22;20673;48.980;8.138;2022-07-23T09:55:18;28.90;99.90
33994;DHT22;20673;48.980;8.138;2022-07-23T09:57:45;29.00;99.90
33994;DHT22;20673;48.980;8.138;2022-07-23T10:00:14;29.00;99.90
33994;DHT22;20673;48.980;8.138;2022-07-23T10:02:41;28.80;99.90
33994;DHT22;20673;48.980;8.138;2022-07-23T10:05:09;28.80;99.90
33994;DHT22;20673;48.980;8.138;2022-07-23T10:07:37;28.90;99.90
33994;DHT22;20673;48.980;8.138;2022-07-23T10:10:06;29.00;99.90
33994;DHT22;20673;48.980;8.138;2022-07-23T10:12:33;29.30;99.90
33994;DHT22;20673;48.980;8.138;2022-07-23T10:15:18;29.60;99.90
33994;DHT22;20673;48.980;8.138;2022-07-23T10:17:45;29.60;99.90
33994;DHT22;20673;48.980;8.138;2022-07-23T10:20:11;29.70;99.90
33994;DHT22;20673;48.980;8.138;2022-07-23T10:22:51;30.10;99.90
33994;DHT22;20673;48.980;8.138;2022-07-23T10:28:30;30.50;99.90
33994;DHT22;20673;48.980;8.138;2022-07-23T10:36:56;30.30;99.90
33994;DHT22;20673;48.980;8.138;2022-07-23T10:39:26;30.20;99.90
33994;DHT22;20673;48.980;8.138;2022-07-23T10:42:11;30.00;99.90
33994;DHT22;20673;48.980;8.138;2022-07-23T10:44:41;29.50;99.90
33994;DHT22;20673;48.980;8.138;2022-07-23T10:47:29;29.10;99.90
33994;DHT22;20673;48.980;8.138;2022-07-23T10:50:22;29.80;99.90
33994;DHT22;20673;48.980;8.138;2022-07-23T10:53:12;30.40;99.90
33994;DHT22;20673;48.980;8.138;2022-07-23T10:55:44;30.00;99.90
33994;DHT22;20673;48.980;8.138;2022-07-23T10:58:21;30.00;99.90
33994;DHT22;20673;48.980;8.138;2022-07-23T11:00:47;30.60;99.90
33994;DHT22;20673;48.980;8.138;2022-07-23T11:03:33;31.20;99.90
33994;DHT22;20673;48.980;8.138;2022-07-23T11:06:05;30.80;99.90
33994;DHT22;20673;48.980;8.138;2022-07-23T11:08:32;30.30;99.90
33994;DHT22;20673;48.980;8.138;2022-07-23T11:16:10;30.50;99.90
33994;DHT22;20673;48.980;8.138;2022-07-23T11:24:06;30.10;99.90
33994;DHT22;20673;48.980;8.138;2022-07-23T11:34:40;30.70;99.90
33994;DHT22;20673;48.980;8.138;2022-07-23T11:37:08;31.20;99.90
33994;DHT22;20673;48.980;8.138;2022-07-23T11:39:37;31.20;99.90
33994;DHT22;20673;48.980;8.138;2022-07-23T11:42:05;31.20;99.90
33994;DHT22;20673;48.980;8.138;2022-07-23T11:44:38;31.00;99.90
33994;DHT22;20673;48.980;8.138;2022-07-23T11:47:08;30.80;99.90
33994;DHT22;20673;48.980;8.138;2022-07-23T11:49:36;30.60;99.90
33994;DHT22;20673;48.980;8.138;2022-07-23T11:52:09;30.90;99.90
33994;DHT22;20673;48.980;8.138;2022-07-23T11:54:51;31.10;99.90
33994;DHT22;20673;48.980;8.138;2022-07-23T11:57:25;31.40;99.90
33994;DHT22;20673;48.980;8.138;2022-07-23T11:59:56;31.60;99.90
33994;DHT22;20673;48.980;8.138;2022-07-23T12:02:24;31.30;99.90
33994;DHT22;20673;48.980;8.138;2022-07-23T12:04:53;31.70;99.90
33994;DHT22;20673;48.980;8.138;2022-07-23T12:07:34;32.20;99.90
33994;DHT22;20673;48.980;8.138;2022-07-23T12:10:13;32.30;99.90
33994;DHT22;20673;48.980;8.138;2022-07-23T12:12:48;31.70;99.90
33994;DHT22;20673;48.980;8.138;2022-07-23T12:15:25;31.30;99.90
33994;DHT22;20673;48.980;8.138;2022-07-23T12:17:57;31.50;99.90
33994;DHT22;20673;48.980;8.138;2022-07-23T12:20:34;32.00;99.90
33994;DHT22;20673;48.980;8.138;2022-07-23T12:23:04;32.00;99.90
33994;DHT22;20673;48.980;8.138;2022-07-23T12:25:38;31.90;99.90
33994;DHT22;20673;48.980;8.138;2022-07-23T12:30:49;32.00;99.90
33994;DHT22;20673;48.980;8.138;2022-07-23T12:33:26;32.40;99.90
33994;DHT22;20673;48.980;8.138;2022-07-23T12:36:00;33.00;99.90
33994;DHT22;20673;48.980;8.138;2022-07-23T12:38:27;32.90;99.90
33994;DHT22;20673;48.980;8.138;2022-07-23T12:40:58;32.40;99.90
33994;DHT22;20673;48.980;8.138;2022-07-23T12:43:40;31.60;99.90
33994;DHT22;20673;48.980;8.138;2022-07-23T12:46:14;31.50;99.90
33994;DHT22;20673;48.980;8.138;2022-07-23T12:51:27;32.50;99.90
33994;DHT22;20673;48.980;8.138;2022-07-23T12:53:58;32.90;99.90
33994;DHT22;20673;48.980;8.138;2022-07-23T12:56:30;33.00;99.90
33994;DHT22;20673;48.980;8.138;2022-07-23T12:59:05;33.10;99.90
33994;DHT22;20673;48.980;8.138;2022-07-23T13:01:40;32.50;99.90
33994;DHT22;20673;48.980;8.138;2022-07-23T13:04:18;32.60;99.90
33994;DHT22;20673;48.980;8.138;2022-07-23T13:06:50;32.70;99.90
33994;DHT22;20673;48.980;8.138;2022-07-23T13:09:21;32.70;99.90
33994;DHT22;20673;48.980;8.138;2022-07-23T13:11:50;33.00;99.90
33994;DHT22;20673;48.980;8.138;2022-07-23T13:14:19;33.60;99.90
33994;DHT22;20673;48.980;8.138;2022-07-23T13:16:47;33.30;99.90
33994;DHT22;20673;48.980;8.138;2022-07-23T13:19:15;33.70;99.90
33994;DHT22;20673;48.980;8.138;2022-07-23T13:21:41;33.40;99.90
33994;DHT22;20673;48.980;8.138;2022-07-23T13:24:10;32.90;99.90
33994;DHT22;20673;48.980;8.138;2022-07-23T13:26:38;33.10;99.90
33994;DHT22;20673;48.980;8.138;2022-07-23T13:29:05;33.20;99.90
33994;DHT22;20673;48.980;8.138;2022-07-23T13:31:32;33.50;99.90
33994;DHT22;20673;48.980;8.138;2022-07-23T13:33:59;33.50;99.90
33994;DHT22;20673;48.980;8.138;2022-07-23T13:36:25;33.50;99.90
33994;DHT22;20673;48.980;8.138;2022-07-23T13:38:51;33.90;99.90
33994;DHT22;20673;48.980;8.138;2022-07-23T13:41:18;34.10;99.90
33994;DHT22;20673;48.980;8.138;2022-07-23T13:43:44;33.70;99.90
33994;DHT22;20673;48.980;8.138;2022-07-23T13:46:11;33.70;99.90
33994;DHT22;20673;48.980;8.138;2022-07-23T13:48:37;34.00;99.90
33994;DHT22;20673;48.980;8.138;2022-07-23T13:51:03;33.40;99.90
33994;DHT22;20673;48.980;8.138;2022-07-23T13:53:30;33.20;99.90
33994;DHT22;20673;48.980;8.138;2022-07-23T13:55:56;33.30;99.90
33994;DHT22;20673;48.980;8.138;2022-07-23T13:58:23;33.20;99.90
33994;DHT22;20673;48.980;8.138;2022-07-23T14:00:51;33.40;99.90
33994;DHT22;20673;48.980;8.138;2022-07-23T14:03:20;33.10;99.90
33994;DHT22;20673;48.980;8.138;2022-07-23T14:05:52;33.10;99.90
33994;DHT22;20673;48.980;8.138;2022-07-23T14:08:19;32.90;99.90
33994;DHT22;20673;48.980;8.138;2022-07-23T14:10:45;32.40;99.90
33994;DHT22;20673;48.980;8.138;2022-07-23T14:13:11;31.90;99.90
33994;DHT22;20673;48.980;8.138;2022-07-23T14:15:37;31.70;99.90
33994;DHT22;20673;48.980;8.138;2022-07-23T14:18:06;31.40;99.90
33994;DHT22;20673;48.980;8.138;2022-07-23T14:20:33;31.60;99.90
33994;DHT22;20673;48.980;8.138;2022-07-23T14:22:59;31.50;99.90
33994;DHT22;20673;48.980;8.138;2022-07-23T14:25:26;31.50;99.90
33994;DHT22;20673;48.980;8.138;2022-07-23T14:27:53;31.30;99.90
33994;DHT22;20673;48.980;8.138;2022-07-23T14:30:20;31.20;99.90
33994;DHT22;20673;48.980;8.138;2022-07-23T14:32:48;31.00;99.90
33994;DHT22;20673;48.980;8.138;2022-07-23T14:35:14;30.90;99.90
33994;DHT22;20673;48.980;8.138;2022-07-23T14:37:40;30.60;99.90
33994;DHT22;20673;48.980;8.138;2022-07-23T14:40:07;30.80;99.90
33994;DHT22;20673;48.980;8.138;2022-07-23T14:42:34;30.90;99.90
33994;DHT22;20673;48.980;8.138;2022-07-23T14:45:00;31.20;99.90
33994;DHT22;20673;48.980;8.138;2022-07-23T14:47:26;31.40;99.90
33994;DHT22;20673;48.980;8.138;2022-07-23T14:49:52;31.30;99.90
33994;DHT22;20673;48.980;8.138;2022-07-23T14:52:18;31.40;99.90
33994;DHT22;20673;48.980;8.138;2022-07-23T14:54:45;31.60;99.90
33994;DHT22;20673;48.980;8.138;2022-07-23T14:57:13;31.50;99.90
33994;DHT22;20673;48.980;8.138;2022-07-23T14:59:39;31.60;99.90
33994;DHT22;20673;48.980;8.138;2022-07-23T15:02:07;31.80;99.90
33994;DHT22;20673;48.980;8.138;2022-07-23T15:04:34;31.60;99.90
33994;DHT22;20673;48.980;8.138;2022-07-23T15:07:00;31.90;99.90
33994;DHT22;20673;48.980;8.138;2022-07-23T15:09:26;32.30;99.90
33994;DHT22;20673;48.980;8.138;2022-07-23T15:11:52;32.30;99.90
33994;DHT22;20673;48.980;8.138;2022-07-23T15:14:18;32.30;99.90
33994;DHT22;20673;48.980;8.138;2022-07-23T15:16:44;32.20;99.90
33994;DHT22;20673;48.980;8.138;2022-07-23T15:19:11;32.40;99.90
33994;DHT22;20673;48.980;8.138;2022-07-23T15:21:37;32.70;99.90
33994;DHT22;20673;48.980;8.138;2022-07-23T15:24:03;33.20;99.90
33994;DHT22;20673;48.980;8.138;2022-07-23T15:26:30;33.50;99.90
33994;DHT22;20673;48.980;8.138;2022-07-23T15:28:57;33.40;99.90
33994;DHT22;20673;48.980;8.138;2022-07-23T15:31:25;33.20;99.90
33994;DHT22;20673;48.980;8.138;2022-07-23T15:33:51;33.30;99.90
33994;DHT22;20673;48.980;8.138;2022-07-23T15:36:18;33.30;99.90
33994;DHT22;20673;48.980;8.138;2022-07-23T15:38:46;33.60;99.90
33994;DHT22;20673;48.980;8.138;2022-07-23T15:41:13;33.70;99.90
33994;DHT22;20673;48.980;8.138;2022-07-23T15:43:40;33.60;99.90
33994;DHT22;20673;48.980;8.138;2022-07-23T15:46:06;33.40;99.90
33994;DHT22;20673;48.980;8.138;2022-07-23T15:48:36;33.10;99.90
33994;DHT22;20673;48.980;8.138;2022-07-23T15:51:03;33.10;99.90
33994;DHT22;20673;48.980;8.138;2022-07-23T15:53:31;33.40;99.90
33994;DHT22;20673;48.980;8.138;2022-07-23T15:55:59;33.50;99.90
33994;DHT22;20673;48.980;8.138;2022-07-23T15:58:27;33.30;99.90
33994;DHT22;20673;48.980;8.138;2022-07-23T16:00:54;33.30;99.90
33994;DHT22;20673;48.980;8.138;2022-07-23T16:03:21;33.00;99.90
33994;DHT22;20673;48.980;8.138;2022-07-23T16:05:47;33.10;99.90
33994;DHT22;20673;48.980;8.138;2022-07-23T16:08:14;32.90;99.90
33994;DHT22;20673;48.980;8.138;2022-07-23T16:10:40;32.90;99.90
33994;DHT22;20673;48.980;8.138;2022-07-23T16:13:06;32.90;99.90